sensor_id;sensor_type;location;lat;lon;timestamp;P1;durP1;ratioP1;P2;durP2;ratioP2
51384;SDS011;37478;55.682;37.462;2023-03-01T00:01:16;4.07;;;1.00;;
51384;SDS011;37478;55.682;37.462;2023-03-01T00:03:42;2.63;;;0.90;;
51384;SDS011;37478;55.682;37.462;2023-03-01T00:06:07;2.53;;;0.98;;
51384;SDS011;37478;55.682;37.462;2023-03-01T00:08:33;0.93;;;0.60;;
51384;SDS011;37478;55.682;37.462;2023-03-01T00:13:39;1.00;;;0.60;;
51384;SDS011;37478;55.682;37.462;2023-03-01T00:16:09;2.67;;;0.80;;
51384;SDS011;37478;55.682;37.462;2023-03-01T00:18:34;5.07;;;1.00;;
51384;SDS011;37478;55.682;37.462;2023-03-01T00:21:00;1.38;;;0.57;;
51384;SDS011;37478;55.682;37.462;2023-03-01T00:23:25;1.48;;;0.55;;
51384;SDS011;37478;55.682;37.462;2023-03-01T00:25:51;4.30;;;0.70;;
51384;SDS011;37478;55.682;37.462;2023-03-01T00:28:17;0.90;;;0.60;;
51384;SDS011;37478;55.682;37.462;2023-03-01T00:30:43;1.23;;;0.70;;
51384;SDS011;37478;55.682;37.462;2023-03-01T00:33:08;1.63;;;1.00;;
51384;SDS011;37478;55.682;37.462;2023-03-01T00:35:33;1.70;;;0.60;;
51384;SDS011;37478;55.682;37.462;2023-03-01T00:37:59;7.35;;;0.80;;
51384;SDS011;37478;55.682;37.462;2023-03-01T00:40:25;0.43;;;0.32;;
51384;SDS011;37478;55.682;37.462;2023-03-01T00:42:51;0.98;;;0.75;;
51384;SDS011;37478;55.682;37.462;2023-03-01T00:45:16;2.33;;;0.80;;
51384;SDS011;37478;55.682;37.462;2023-03-01T00:47:41;1.63;;;0.85;;
51384;SDS011;37478;55.682;37.462;2023-03-01T00:50:07;1.45;;;0.65;;
51384;SDS011;37478;55.682;37.462;2023-03-01T00:52:32;4.57;;;1.25;;
51384;SDS011;37478;55.682;37.462;2023-03-01T00:54:58;2.97;;;0.98;;
51384;SDS011;37478;55.682;37.462;2023-03-01T00:57:23;1.33;;;0.52;;
51384;SDS011;37478;55.682;37.462;2023-03-01T00:59:49;3.85;;;0.65;;
51384;SDS011;37478;55.682;37.462;2023-03-01T01:02:14;3.10;;;0.88;;
51384;SDS011;37478;55.682;37.462;2023-03-01T01:04:39;1.55;;;0.90;;
51384;SDS011;37478;55.682;37.462;2023-03-01T01:07:05;1.75;;;0.73;;
51384;SDS011;37478;55.682;37.462;2023-03-01T01:09:30;2.25;;;0.90;;
51384;SDS011;37478;55.682;37.462;2023-03-01T01:11:56;0.75;;;0.70;;
51384;SDS011;37478;55.682;37.462;2023-03-01T01:14:21;1.65;;;0.82;;
51384;SDS011;37478;55.682;37.462;2023-03-01T01:16:47;0.50;;;0.50;;
51384;SDS011;37478;55.682;37.462;2023-03-01T01:19:12;6.28;;;1.13;;
51384;SDS011;37478;55.682;37.462;2023-03-01T01:21:38;1.88;;;1.00;;
51384;SDS011;37478;55.682;37.462;2023-03-01T01:24:04;2.42;;;0.73;;
51384;SDS011;37478;55.682;37.462;2023-03-01T01:26:30;3.85;;;1.10;;
51384;SDS011;37478;55.682;37.462;2023-03-01T01:28:56;0.68;;;0.68;;
51384;SDS011;37478;55.682;37.462;2023-03-01T01:31:22;4.15;;;0.90;;
51384;SDS011;37478;55.682;37.462;2023-03-01T01:33:49;1.13;;;0.40;;
51384;SDS011;37478;55.682;37.462;2023-03-01T01:36:14;0.47;;;0.38;;
51384;SDS011;37478;55.682;37.462;2023-03-01T01:38:39;0.82;;;0.60;;
51384;SDS011;37478;55.682;37.462;2023-03-01T01:41:06;1.33;;;0.80;;
51384;SDS011;37478;55.682;37.462;2023-03-01T01:43:36;1.60;;;1.00;;
51384;SDS011;37478;55.682;37.462;2023-03-01T01:46:06;1.77;;;0.77;;
51384;SDS011;37478;55.682;37.462;2023-03-01T01:48:41;1.08;;;0.30;;
51384;SDS011;37478;55.682;37.462;2023-03-01T01:51:09;1.00;;;0.68;;
51384;SDS011;37478;55.682;37.462;2023-03-01T01:53:35;1.65;;;1.10;;
51384;SDS011;37478;55.682;37.462;2023-03-01T01:56:02;0.90;;;0.45;;
51384;SDS011;37478;55.682;37.462;2023-03-01T01:58:28;0.60;;;0.60;;
51384;SDS011;37478;55.682;37.462;2023-03-01T02:00:54;0.73;;;0.60;;
51384;SDS011;37478;55.682;37.462;2023-03-01T02:03:22;0.75;;;0.60;;
51384;SDS011;37478;55.682;37.462;2023-03-01T02:05:53;2.65;;;0.50;;
51384;SDS011;37478;55.682;37.462;2023-03-01T02:08:22;1.73;;;0.63;;
51384;SDS011;37478;55.682;37.462;2023-03-01T02:10:48;2.78;;;1.08;;
51384;SDS011;37478;55.682;37.462;2023-03-01T02:13:14;4.07;;;0.80;;
51384;SDS011;37478;55.682;37.462;2023-03-01T02:15:40;1.60;;;1.00;;
51384;SDS011;37478;55.682;37.462;2023-03-01T02:18:06;3.28;;;1.15;;
51384;SDS011;37478;55.682;37.462;2023-03-01T02:20:41;0.77;;;0.40;;
51384;SDS011;37478;55.682;37.462;2023-03-01T02:23:10;1.95;;;0.80;;
51384;SDS011;37478;55.682;37.462;2023-03-01T02:25:39;1.65;;;0.73;;
51384;SDS011;37478;55.682;37.462;2023-03-01T02:30:31;1.55;;;0.52;;
51384;SDS011;37478;55.682;37.462;2023-03-01T02:32:57;1.65;;;1.02;;
51384;SDS011;37478;55.682;37.462;2023-03-01T02:35:27;3.50;;;1.13;;
51384;SDS011;37478;55.682;37.462;2023-03-01T02:37:54;1.25;;;0.80;;
51384;SDS011;37478;55.682;37.462;2023-03-01T02:40:22;1.30;;;0.57;;
51384;SDS011;37478;55.682;37.462;2023-03-01T02:42:52;2.20;;;0.90;;
51384;SDS011;37478;55.682;37.462;2023-03-01T02:45:18;1.75;;;0.57;;
51384;SDS011;37478;55.682;37.462;2023-03-01T02:47:44;2.65;;;1.23;;
51384;SDS011;37478;55.682;37.462;2023-03-01T02:53:11;2.08;;;0.85;;
51384;SDS011;37478;55.682;37.462;2023-03-01T02:55:35;3.58;;;1.17;;
51384;SDS011;37478;55.682;37.462;2023-03-01T02:58:01;3.25;;;0.98;;
51384;SDS011;37478;55.682;37.462;2023-03-01T03:00:29;0.82;;;0.80;;
51384;SDS011;37478;55.682;37.462;2023-03-01T03:02:55;1.33;;;1.02;;
51384;SDS011;37478;55.682;37.462;2023-03-01T03:05:26;3.50;;;1.17;;
51384;SDS011;37478;55.682;37.462;2023-03-01T03:07:52;2.20;;;1.08;;
51384;SDS011;37478;55.682;37.462;2023-03-01T03:10:22;1.60;;;1.02;;
51384;SDS011;37478;55.682;37.462;2023-03-01T03:12:55;4.97;;;1.23;;
51384;SDS011;37478;55.682;37.462;2023-03-01T03:15:21;0.95;;;0.73;;
51384;SDS011;37478;55.682;37.462;2023-03-01T03:17:46;2.08;;;0.77;;
51384;SDS011;37478;55.682;37.462;2023-03-01T03:20:12;0.77;;;0.55;;
51384;SDS011;37478;55.682;37.462;2023-03-01T03:22:44;3.08;;;0.90;;
51384;SDS011;37478;55.682;37.462;2023-03-01T03:25:09;0.43;;;0.43;;
51384;SDS011;37478;55.682;37.462;2023-03-01T03:27:36;5.40;;;0.80;;
51384;SDS011;37478;55.682;37.462;2023-03-01T03:30:01;3.65;;;0.90;;
51384;SDS011;37478;55.682;37.462;2023-03-01T03:32:26;1.88;;;0.73;;
51384;SDS011;37478;55.682;37.462;2023-03-01T03:34:52;2.45;;;1.15;;
51384;SDS011;37478;55.682;37.462;2023-03-01T03:37:17;7.90;;;1.35;;
51384;SDS011;37478;55.682;37.462;2023-03-01T03:40:14;1.60;;;1.30;;
51384;SDS011;37478;55.682;37.462;2023-03-01T03:42:40;4.28;;;0.90;;
51384;SDS011;37478;55.682;37.462;2023-03-01T03:45:06;1.10;;;1.00;;
51384;SDS011;37478;55.682;37.462;2023-03-01T03:47:31;3.67;;;1.30;;
51384;SDS011;37478;55.682;37.462;2023-03-01T03:49:56;1.42;;;0.57;;
51384;SDS011;37478;55.682;37.462;2023-03-01T03:52:22;2.55;;;1.08;;
51384;SDS011;37478;55.682;37.462;2023-03-01T03:54:47;1.80;;;0.80;;
51384;SDS011;37478;55.682;37.462;2023-03-01T03:57:12;2.53;;;1.10;;
51384;SDS011;37478;55.682;37.462;2023-03-01T03:59:38;1.50;;;0.88;;
51384;SDS011;37478;55.682;37.462;2023-03-01T04:02:03;2.28;;;0.80;;
51384;SDS011;37478;55.682;37.462;2023-03-01T04:04:28;4.22;;;1.33;;
51384;SDS011;37478;55.682;37.462;2023-03-01T04:06:54;2.75;;;1.30;;
51384;SDS011;37478;55.682;37.462;2023-03-01T04:09:19;2.38;;;1.15;;
51384;SDS011;37478;55.682;37.462;2023-03-01T04:11:44;2.15;;;0.90;;
51384;SDS011;37478;55.682;37.462;2023-03-01T04:14:09;1.50;;;1.40;;
51384;SDS011;37478;55.682;37.462;2023-03-01T04:16:35;1.73;;;1.05;;
51384;SDS011;37478;55.682;37.462;2023-03-01T04:19:00;0.52;;;0.52;;
51384;SDS011;37478;55.682;37.462;2023-03-01T04:21:25;1.20;;;0.98;;
51384;SDS011;37478;55.682;37.462;2023-03-01T04:23:51;2.72;;;1.38;;
51384;SDS011;37478;55.682;37.462;2023-03-01T04:26:17;2.85;;;1.08;;
51384;SDS011;37478;55.682;37.462;2023-03-01T04:28:43;2.80;;;1.30;;
51384;SDS011;37478;55.682;37.462;2023-03-01T04:31:14;2.05;;;1.08;;
51384;SDS011;37478;55.682;37.462;2023-03-01T04:36:12;1.65;;;0.80;;
51384;SDS011;37478;55.682;37.462;2023-03-01T04:38:38;3.10;;;1.27;;
51384;SDS011;37478;55.682;37.462;2023-03-01T04:41:05;1.30;;;0.90;;
51384;SDS011;37478;55.682;37.462;2023-03-01T04:43:30;3.13;;;1.40;;
51384;SDS011;37478;55.682;37.462;2023-03-01T04:45:59;1.75;;;0.82;;
51384;SDS011;37478;55.682;37.462;2023-03-01T04:48:27;3.15;;;1.13;;
51384;SDS011;37478;55.682;37.462;2023-03-01T04:50:52;2.70;;;1.13;;
51384;SDS011;37478;55.682;37.462;2023-03-01T04:53:17;2.72;;;1.05;;
51384;SDS011;37478;55.682;37.462;2023-03-01T04:55:43;3.30;;;1.25;;
51384;SDS011;37478;55.682;37.462;2023-03-01T04:58:08;3.25;;;1.25;;
51384;SDS011;37478;55.682;37.462;2023-03-01T05:00:34;3.33;;;1.63;;
51384;SDS011;37478;55.682;37.462;2023-03-01T05:03:00;3.97;;;2.22;;
51384;SDS011;37478;55.682;37.462;2023-03-01T05:05:32;5.47;;;2.45;;
51384;SDS011;37478;55.682;37.462;2023-03-01T05:07:59;4.38;;;2.67;;
51384;SDS011;37478;55.682;37.462;2023-03-01T05:10:25;6.68;;;3.67;;
51384;SDS011;37478;55.682;37.462;2023-03-01T05:12:51;7.20;;;3.88;;
51384;SDS011;37478;55.682;37.462;2023-03-01T05:15:19;6.57;;;4.32;;
51384;SDS011;37478;55.682;37.462;2023-03-01T05:17:46;6.00;;;3.75;;
51384;SDS011;37478;55.682;37.462;2023-03-01T05:20:12;7.90;;;4.03;;
51384;SDS011;37478;55.682;37.462;2023-03-01T05:22:37;4.82;;;3.33;;
51384;SDS011;37478;55.682;37.462;2023-03-01T05:25:03;6.25;;;3.67;;
51384;SDS011;37478;55.682;37.462;2023-03-01T05:27:29;7.63;;;3.10;;
51384;SDS011;37478;55.682;37.462;2023-03-01T05:29:54;3.85;;;2.78;;
51384;SDS011;37478;55.682;37.462;2023-03-01T05:32:20;3.72;;;2.40;;
51384;SDS011;37478;55.682;37.462;2023-03-01T05:34:45;5.22;;;3.05;;
51384;SDS011;37478;55.682;37.462;2023-03-01T05:37:11;5.25;;;2.42;;
51384;SDS011;37478;55.682;37.462;2023-03-01T12:16:15;3.03;;;1.27;;
51384;SDS011;37478;55.682;37.462;2023-03-01T12:49:30;1.40;;;1.02;;
51384;SDS011;37478;55.682;37.462;2023-03-01T12:51:58;1.88;;;0.95;;
51384;SDS011;37478;55.682;37.462;2023-03-01T12:54:29;0.80;;;0.60;;
51384;SDS011;37478;55.682;37.462;2023-03-01T12:56:56;7.43;;;1.63;;
51384;SDS011;37478;55.682;37.462;2023-03-01T13:04:34;4.97;;;0.95;;
51384;SDS011;37478;55.682;37.462;2023-03-01T13:07:10;1.27;;;1.00;;
51384;SDS011;37478;55.682;37.462;2023-03-01T13:12:01;2.58;;;0.88;;
51384;SDS011;37478;55.682;37.462;2023-03-01T13:16:55;1.85;;;1.23;;
51384;SDS011;37478;55.682;37.462;2023-03-01T13:19:21;1.33;;;0.77;;
51384;SDS011;37478;55.682;37.462;2023-03-01T13:21:48;8.93;;;1.58;;
51384;SDS011;37478;55.682;37.462;2023-03-01T13:27:09;7.30;;;4.53;;
51384;SDS011;37478;55.682;37.462;2023-03-01T13:29:47;12.67;;;3.07;;
51384;SDS011;37478;55.682;37.462;2023-03-01T13:34:45;1.05;;;0.70;;
51384;SDS011;37478;55.682;37.462;2023-03-01T13:37:18;3.72;;;1.05;;
51384;SDS011;37478;55.682;37.462;2023-03-01T13:39:44;4.70;;;1.33;;
51384;SDS011;37478;55.682;37.462;2023-03-01T13:44:54;3.83;;;2.17;;
51384;SDS011;37478;55.682;37.462;2023-03-01T13:47:19;6.13;;;1.35;;
51384;SDS011;37478;55.682;37.462;2023-03-01T13:49:46;4.53;;;1.42;;
51384;SDS011;37478;55.682;37.462;2023-03-01T13:54:56;3.88;;;2.00;;
51384;SDS011;37478;55.682;37.462;2023-03-01T13:57:24;3.85;;;1.83;;
51384;SDS011;37478;55.682;37.462;2023-03-01T13:59:51;1.90;;;1.30;;
51384;SDS011;37478;55.682;37.462;2023-03-01T14:02:16;4.93;;;1.75;;
51384;SDS011;37478;55.682;37.462;2023-03-01T14:04:41;2.03;;;1.35;;
51384;SDS011;37478;55.682;37.462;2023-03-01T14:07:19;2.75;;;0.93;;
51384;SDS011;37478;55.682;37.462;2023-03-01T14:09:46;2.22;;;1.20;;
51384;SDS011;37478;55.682;37.462;2023-03-01T14:12:21;2.15;;;1.20;;
51384;SDS011;37478;55.682;37.462;2023-03-01T14:22:35;7.63;;;0.95;;
51384;SDS011;37478;55.682;37.462;2023-03-01T14:25:02;1.58;;;0.90;;
51384;SDS011;37478;55.682;37.462;2023-03-01T14:27:30;3.67;;;1.77;;
51384;SDS011;37478;55.682;37.462;2023-03-01T14:30:01;2.60;;;1.70;;
51384;SDS011;37478;55.682;37.462;2023-03-01T14:32:27;1.35;;;1.25;;
51384;SDS011;37478;55.682;37.462;2023-03-01T14:34:54;2.65;;;1.33;;
51384;SDS011;37478;55.682;37.462;2023-03-01T14:39:44;1.25;;;1.02;;
51384;SDS011;37478;55.682;37.462;2023-03-01T14:42:11;2.42;;;1.10;;
51384;SDS011;37478;55.682;37.462;2023-03-01T14:44:37;1.25;;;0.77;;
51384;SDS011;37478;55.682;37.462;2023-03-01T14:47:02;3.65;;;1.48;;
51384;SDS011;37478;55.682;37.462;2023-03-01T14:49:29;1.85;;;1.10;;
51384;SDS011;37478;55.682;37.462;2023-03-01T14:52:05;2.08;;;0.85;;
51384;SDS011;37478;55.682;37.462;2023-03-01T14:57:02;2.30;;;0.93;;
51384;SDS011;37478;55.682;37.462;2023-03-01T14:59:28;3.13;;;1.80;;
51384;SDS011;37478;55.682;37.462;2023-03-01T15:01:55;4.18;;;1.50;;
51384;SDS011;37478;55.682;37.462;2023-03-01T15:04:21;2.55;;;1.63;;
51384;SDS011;37478;55.682;37.462;2023-03-01T15:06:47;2.25;;;1.52;;
51384;SDS011;37478;55.682;37.462;2023-03-01T15:09:15;6.97;;;2.33;;
51384;SDS011;37478;55.682;37.462;2023-03-01T15:11:44;5.30;;;1.40;;
51384;SDS011;37478;55.682;37.462;2023-03-01T15:14:36;1.58;;;1.35;;
51384;SDS011;37478;55.682;37.462;2023-03-01T15:17:03;1.88;;;0.95;;
51384;SDS011;37478;55.682;37.462;2023-03-01T15:19:28;2.08;;;1.08;;
51384;SDS011;37478;55.682;37.462;2023-03-01T15:21:54;2.83;;;1.10;;
51384;SDS011;37478;55.682;37.462;2023-03-01T15:24:23;3.08;;;1.52;;
51384;SDS011;37478;55.682;37.462;2023-03-01T15:26:59;2.80;;;1.50;;
51384;SDS011;37478;55.682;37.462;2023-03-01T15:29:28;3.65;;;1.27;;
51384;SDS011;37478;55.682;37.462;2023-03-01T15:32:00;2.33;;;1.65;;
51384;SDS011;37478;55.682;37.462;2023-03-01T15:34:37;3.03;;;1.60;;
51384;SDS011;37478;55.682;37.462;2023-03-01T15:37:04;2.75;;;1.17;;
51384;SDS011;37478;55.682;37.462;2023-03-01T15:42:47;2.28;;;1.02;;
51384;SDS011;37478;55.682;37.462;2023-03-01T15:44:47;7.13;;;1.35;;
51384;SDS011;37478;55.682;37.462;2023-03-01T15:47:26;2.88;;;1.80;;
51384;SDS011;37478;55.682;37.462;2023-03-01T15:49:53;1.05;;;0.77;;
51384;SDS011;37478;55.682;37.462;2023-03-01T15:52:21;1.85;;;1.10;;
51384;SDS011;37478;55.682;37.462;2023-03-01T15:54:53;2.70;;;0.98;;
51384;SDS011;37478;55.682;37.462;2023-03-01T15:57:19;0.70;;;0.70;;
51384;SDS011;37478;55.682;37.462;2023-03-01T15:59:45;0.63;;;0.60;;
51384;SDS011;37478;55.682;37.462;2023-03-01T16:02:10;1.13;;;0.82;;
51384;SDS011;37478;55.682;37.462;2023-03-01T16:04:37;3.17;;;1.17;;
51384;SDS011;37478;55.682;37.462;2023-03-01T16:07:03;2.45;;;0.70;;
51384;SDS011;37478;55.682;37.462;2023-03-01T16:09:28;3.85;;;1.50;;
51384;SDS011;37478;55.682;37.462;2023-03-01T16:11:53;2.85;;;1.63;;
51384;SDS011;37478;55.682;37.462;2023-03-01T16:14:19;3.30;;;1.58;;
51384;SDS011;37478;55.682;37.462;2023-03-01T16:16:44;2.42;;;1.10;;
51384;SDS011;37478;55.682;37.462;2023-03-01T16:19:10;1.42;;;0.88;;
51384;SDS011;37478;55.682;37.462;2023-03-01T16:21:35;3.05;;;1.38;;
51384;SDS011;37478;55.682;37.462;2023-03-01T16:24:01;1.42;;;0.82;;
51384;SDS011;37478;55.682;37.462;2023-03-01T16:26:26;3.35;;;0.90;;
51384;SDS011;37478;55.682;37.462;2023-03-01T16:28:54;0.88;;;0.75;;
51384;SDS011;37478;55.682;37.462;2023-03-01T16:31:19;8.07;;;1.17;;
51384;SDS011;37478;55.682;37.462;2023-03-01T16:33:45;1.30;;;0.93;;
51384;SDS011;37478;55.682;37.462;2023-03-01T16:36:14;2.53;;;1.48;;
51384;SDS011;37478;55.682;37.462;2023-03-01T16:38:40;4.60;;;1.38;;
51384;SDS011;37478;55.682;37.462;2023-03-01T16:41:06;3.10;;;1.27;;
51384;SDS011;37478;55.682;37.462;2023-03-01T16:43:36;3.15;;;1.45;;
51384;SDS011;37478;55.682;37.462;2023-03-01T16:46:01;1.48;;;1.10;;
51384;SDS011;37478;55.682;37.462;2023-03-01T16:48:29;2.40;;;0.73;;
51384;SDS011;37478;55.682;37.462;2023-03-01T16:50:58;1.25;;;0.73;;
51384;SDS011;37478;55.682;37.462;2023-03-01T16:53:24;1.52;;;1.05;;
51384;SDS011;37478;55.682;37.462;2023-03-01T16:55:53;1.50;;;1.20;;
51384;SDS011;37478;55.682;37.462;2023-03-01T16:58:18;2.95;;;1.30;;
51384;SDS011;37478;55.682;37.462;2023-03-01T17:00:43;1.98;;;1.30;;
51384;SDS011;37478;55.682;37.462;2023-03-01T17:03:08;2.42;;;1.20;;
51384;SDS011;37478;55.682;37.462;2023-03-01T17:05:34;2.80;;;1.02;;
51384;SDS011;37478;55.682;37.462;2023-03-01T17:07:59;1.38;;;0.90;;
51384;SDS011;37478;55.682;37.462;2023-03-01T17:10:24;2.25;;;1.20;;
51384;SDS011;37478;55.682;37.462;2023-03-01T17:12:50;1.85;;;1.15;;
51384;SDS011;37478;55.682;37.462;2023-03-01T17:15:15;2.75;;;1.15;;
51384;SDS011;37478;55.682;37.462;2023-03-01T17:17:40;1.38;;;1.15;;
51384;SDS011;37478;55.682;37.462;2023-03-01T17:20:06;2.88;;;1.25;;
51384;SDS011;37478;55.682;37.462;2023-03-01T17:22:32;1.95;;;1.20;;
51384;SDS011;37478;55.682;37.462;2023-03-01T17:24:57;1.13;;;0.57;;
51384;SDS011;37478;55.682;37.462;2023-03-01T17:27:23;1.88;;;1.00;;
51384;SDS011;37478;55.682;37.462;2023-03-01T17:29:48;1.70;;;1.00;;
51384;SDS011;37478;55.682;37.462;2023-03-01T17:32:13;1.83;;;1.30;;
51384;SDS011;37478;55.682;37.462;2023-03-01T17:34:38;3.15;;;1.40;;
51384;SDS011;37478;55.682;37.462;2023-03-01T17:37:04;1.60;;;0.90;;
51384;SDS011;37478;55.682;37.462;2023-03-01T17:39:29;4.53;;;1.27;;
51384;SDS011;37478;55.682;37.462;2023-03-01T17:42:00;3.33;;;0.98;;
51384;SDS011;37478;55.682;37.462;2023-03-01T17:44:25;2.83;;;1.20;;
51384;SDS011;37478;55.682;37.462;2023-03-01T17:46:51;3.45;;;0.82;;
51384;SDS011;37478;55.682;37.462;2023-03-01T17:49:16;2.78;;;1.13;;
51384;SDS011;37478;55.682;37.462;2023-03-01T17:51:42;1.52;;;0.73;;
51384;SDS011;37478;55.682;37.462;2023-03-01T17:54:08;3.78;;;1.17;;
51384;SDS011;37478;55.682;37.462;2023-03-01T17:56:33;2.05;;;1.02;;
51384;SDS011;37478;55.682;37.462;2023-03-01T17:58:59;3.38;;;1.17;;
51384;SDS011;37478;55.682;37.462;2023-03-01T18:01:24;0.85;;;0.85;;
51384;SDS011;37478;55.682;37.462;2023-03-01T18:03:51;0.93;;;0.82;;
51384;SDS011;37478;55.682;37.462;2023-03-01T18:06:21;1.60;;;1.00;;
51384;SDS011;37478;55.682;37.462;2023-03-01T18:08:46;3.15;;;1.63;;
51384;SDS011;37478;55.682;37.462;2023-03-01T18:11:14;3.88;;;1.23;;
51384;SDS011;37478;55.682;37.462;2023-03-01T18:13:39;2.92;;;1.17;;
51384;SDS011;37478;55.682;37.462;2023-03-01T18:16:06;4.28;;;1.60;;
51384;SDS011;37478;55.682;37.462;2023-03-01T18:18:31;0.70;;;0.68;;
51384;SDS011;37478;55.682;37.462;2023-03-01T18:20:57;3.83;;;1.50;;
51384;SDS011;37478;55.682;37.462;2023-03-01T18:23:23;3.13;;;1.65;;
51384;SDS011;37478;55.682;37.462;2023-03-01T18:25:48;1.45;;;0.90;;
51384;SDS011;37478;55.682;37.462;2023-03-01T18:28:14;0.95;;;0.88;;
51384;SDS011;37478;55.682;37.462;2023-03-01T18:30:40;3.05;;;1.70;;
51384;SDS011;37478;55.682;37.462;2023-03-01T18:33:05;1.92;;;1.27;;
51384;SDS011;37478;55.682;37.462;2023-03-01T18:35:34;3.25;;;1.63;;
51384;SDS011;37478;55.682;37.462;2023-03-01T18:37:59;3.72;;;1.23;;
51384;SDS011;37478;55.682;37.462;2023-03-01T18:40:25;0.98;;;0.80;;
51384;SDS011;37478;55.682;37.462;2023-03-01T18:42:50;1.15;;;0.93;;
51384;SDS011;37478;55.682;37.462;2023-03-01T18:45:15;1.55;;;1.45;;
51384;SDS011;37478;55.682;37.462;2023-03-01T18:47:41;2.25;;;1.63;;
51384;SDS011;37478;55.682;37.462;2023-03-01T18:50:07;3.25;;;1.45;;
51384;SDS011;37478;55.682;37.462;2023-03-01T18:52:32;4.45;;;1.77;;
51384;SDS011;37478;55.682;37.462;2023-03-01T18:54:57;4.90;;;1.38;;
51384;SDS011;37478;55.682;37.462;2023-03-01T18:57:23;5.00;;;1.42;;
51384;SDS011;37478;55.682;37.462;2023-03-01T18:59:48;5.57;;;1.75;;
51384;SDS011;37478;55.682;37.462;2023-03-01T19:02:13;3.50;;;2.00;;
51384;SDS011;37478;55.682;37.462;2023-03-01T19:04:40;1.92;;;1.10;;
51384;SDS011;37478;55.682;37.462;2023-03-01T19:07:05;1.45;;;1.33;;
51384;SDS011;37478;55.682;37.462;2023-03-01T19:09:32;2.47;;;1.52;;
51384;SDS011;37478;55.682;37.462;2023-03-01T19:11:57;2.85;;;1.08;;
51384;SDS011;37478;55.682;37.462;2023-03-01T19:14:25;3.13;;;1.13;;
51384;SDS011;37478;55.682;37.462;2023-03-01T19:16:50;3.80;;;1.63;;
51384;SDS011;37478;55.682;37.462;2023-03-01T19:19:16;2.33;;;1.20;;
51384;SDS011;37478;55.682;37.462;2023-03-01T19:21:41;1.27;;;0.85;;
51384;SDS011;37478;55.682;37.462;2023-03-01T19:24:06;2.00;;;1.20;;
51384;SDS011;37478;55.682;37.462;2023-03-01T19:26:32;1.77;;;1.35;;
51384;SDS011;37478;55.682;37.462;2023-03-01T19:28:57;2.42;;;1.23;;
51384;SDS011;37478;55.682;37.462;2023-03-01T19:31:24;4.80;;;2.20;;
51384;SDS011;37478;55.682;37.462;2023-03-01T19:33:50;8.52;;;2.63;;
51384;SDS011;37478;55.682;37.462;2023-03-01T19:36:16;5.72;;;2.30;;
51384;SDS011;37478;55.682;37.462;2023-03-01T19:38:42;2.03;;;1.27;;
51384;SDS011;37478;55.682;37.462;2023-03-01T19:41:09;8.73;;;3.72;;
51384;SDS011;37478;55.682;37.462;2023-03-01T19:43:35;4.78;;;1.85;;
51384;SDS011;37478;55.682;37.462;2023-03-01T19:46:00;2.17;;;0.98;;
51384;SDS011;37478;55.682;37.462;2023-03-01T19:48:26;1.80;;;1.02;;
51384;SDS011;37478;55.682;37.462;2023-03-01T19:50:52;4.05;;;1.35;;
51384;SDS011;37478;55.682;37.462;2023-03-01T19:53:17;8.13;;;1.65;;
51384;SDS011;37478;55.682;37.462;2023-03-01T19:55:43;6.00;;;1.80;;
51384;SDS011;37478;55.682;37.462;2023-03-01T19:58:08;1.35;;;0.73;;
51384;SDS011;37478;55.682;37.462;2023-03-01T20:00:35;4.95;;;1.50;;
51384;SDS011;37478;55.682;37.462;2023-03-01T20:03:00;2.90;;;1.63;;
51384;SDS011;37478;55.682;37.462;2023-03-01T20:05:26;3.13;;;1.25;;
51384;SDS011;37478;55.682;37.462;2023-03-01T20:07:53;2.17;;;1.27;;
51384;SDS011;37478;55.682;37.462;2023-03-01T20:10:18;1.85;;;1.38;;
51384;SDS011;37478;55.682;37.462;2023-03-01T20:12:44;3.88;;;2.72;;
51384;SDS011;37478;55.682;37.462;2023-03-01T20:15:09;3.97;;;1.33;;
51384;SDS011;37478;55.682;37.462;2023-03-01T20:17:34;6.28;;;2.22;;
51384;SDS011;37478;55.682;37.462;2023-03-01T20:20:00;8.05;;;1.63;;
51384;SDS011;37478;55.682;37.462;2023-03-01T20:22:25;1.95;;;1.42;;
51384;SDS011;37478;55.682;37.462;2023-03-01T20:24:50;3.13;;;1.27;;
51384;SDS011;37478;55.682;37.462;2023-03-01T20:27:16;8.50;;;1.73;;
51384;SDS011;37478;55.682;37.462;2023-03-01T20:29:41;1.73;;;1.55;;
51384;SDS011;37478;55.682;37.462;2023-03-01T20:32:06;1.58;;;1.33;;
51384;SDS011;37478;55.682;37.462;2023-03-01T20:34:32;1.42;;;0.98;;
51384;SDS011;37478;55.682;37.462;2023-03-01T20:36:57;4.88;;;2.35;;
51384;SDS011;37478;55.682;37.462;2023-03-01T20:39:23;5.82;;;1.92;;
51384;SDS011;37478;55.682;37.462;2023-03-01T20:41:48;2.67;;;2.08;;
51384;SDS011;37478;55.682;37.462;2023-03-01T20:44:13;4.82;;;1.98;;
51384;SDS011;37478;55.682;37.462;2023-03-01T20:46:39;6.65;;;2.28;;
51384;SDS011;37478;55.682;37.462;2023-03-01T20:49:04;4.18;;;1.85;;
51384;SDS011;37478;55.682;37.462;2023-03-01T20:51:29;3.47;;;2.17;;
51384;SDS011;37478;55.682;37.462;2023-03-01T20:53:55;4.03;;;1.85;;
51384;SDS011;37478;55.682;37.462;2023-03-01T20:56:20;5.07;;;1.73;;
51384;SDS011;37478;55.682;37.462;2023-03-01T20:58:46;3.65;;;1.38;;
51384;SDS011;37478;55.682;37.462;2023-03-01T21:01:15;2.05;;;1.33;;
51384;SDS011;37478;55.682;37.462;2023-03-01T21:03:41;4.68;;;2.25;;
51384;SDS011;37478;55.682;37.462;2023-03-01T21:06:06;4.22;;;2.17;;
51384;SDS011;37478;55.682;37.462;2023-03-01T21:08:32;9.07;;;1.80;;
51384;SDS011;37478;55.682;37.462;2023-03-01T21:10:58;3.72;;;1.50;;
51384;SDS011;37478;55.682;37.462;2023-03-01T21:13:23;3.33;;;2.25;;
51384;SDS011;37478;55.682;37.462;2023-03-01T21:18:17;6.32;;;1.95;;
51384;SDS011;37478;55.682;37.462;2023-03-01T21:20:42;2.63;;;1.55;;
51384;SDS011;37478;55.682;37.462;2023-03-01T21:23:08;3.58;;;1.90;;
51384;SDS011;37478;55.682;37.462;2023-03-01T21:25:33;3.65;;;1.65;;
51384;SDS011;37478;55.682;37.462;2023-03-01T21:28:02;5.97;;;1.88;;
51384;SDS011;37478;55.682;37.462;2023-03-01T21:30:27;3.25;;;1.60;;
51384;SDS011;37478;55.682;37.462;2023-03-01T21:32:53;4.93;;;2.05;;
51384;SDS011;37478;55.682;37.462;2023-03-01T21:35:18;2.40;;;1.08;;
51384;SDS011;37478;55.682;37.462;2023-03-01T21:37:43;7.43;;;1.55;;
51384;SDS011;37478;55.682;37.462;2023-03-01T21:40:09;7.47;;;1.70;;
51384;SDS011;37478;55.682;37.462;2023-03-01T21:42:35;2.17;;;1.35;;
51384;SDS011;37478;55.682;37.462;2023-03-01T21:45:02;1.42;;;1.10;;
51384;SDS011;37478;55.682;37.462;2023-03-01T21:47:28;4.00;;;0.95;;
51384;SDS011;37478;55.682;37.462;2023-03-01T21:49:53;4.93;;;1.58;;
51384;SDS011;37478;55.682;37.462;2023-03-01T21:52:18;4.97;;;1.88;;
51384;SDS011;37478;55.682;37.462;2023-03-01T21:54:43;3.70;;;1.05;;
51384;SDS011;37478;55.682;37.462;2023-03-01T21:57:09;4.10;;;1.85;;
51384;SDS011;37478;55.682;37.462;2023-03-01T21:59:34;4.78;;;1.40;;
51384;SDS011;37478;55.682;37.462;2023-03-01T22:01:59;3.15;;;1.35;;
51384;SDS011;37478;55.682;37.462;2023-03-01T22:04:25;6.25;;;1.42;;
51384;SDS011;37478;55.682;37.462;2023-03-01T22:06:50;3.78;;;1.35;;
51384;SDS011;37478;55.682;37.462;2023-03-01T22:09:19;4.63;;;1.35;;
51384;SDS011;37478;55.682;37.462;2023-03-01T22:11:46;2.53;;;1.42;;
51384;SDS011;37478;55.682;37.462;2023-03-01T22:14:12;2.35;;;0.90;;
51384;SDS011;37478;55.682;37.462;2023-03-01T22:16:38;2.08;;;1.38;;
51384;SDS011;37478;55.682;37.462;2023-03-01T22:19:04;1.90;;;1.52;;
51384;SDS011;37478;55.682;37.462;2023-03-01T22:21:30;4.60;;;1.25;;
51384;SDS011;37478;55.682;37.462;2023-03-01T22:23:55;2.72;;;0.88;;
51384;SDS011;37478;55.682;37.462;2023-03-01T22:26:30;2.20;;;0.95;;